Time;durP1;ratioP1;P1;durP2;ratioP2;P2;SDS_P1;SDS_P2;PMS_P1;PMS_P2;Temp;Humidity;BMP_temperature;BMP_pressure;BME280_temperature;BME280_humidity;BME280_pressure;Samples;Min_cycle;Max_cycle;Signal;HPM_P1;HPM_P2
2024/02/24 00:01:14;;;;;;;;;;;;;;;5.86;59.99;96243.69;5097243;28;20072;-60
2024/02/24 00:04:02;;;;;;;;;;;;;;;5.92;59.81;96248.63;5099699;28;19965;-58
2024/02/24 00:06:51;;;;;;;;;;;;;;;5.98;59.26;96257.34;5106084;28;19924;-58
2024/02/24 00:09:40;;;;;;;;;;;;;;;5.99;59.87;96248.13;5103801;28;20057;-58
2024/02/24 00:12:27;;;;;;;;;;;;;;;5.99;59.07;96248.13;5113745;28;20015;-58
2024/02/24 00:15:16;;;;;;;;;;;;;;;5.91;60.00;96257.00;5089808;28;20372;-57
2024/02/24 00:18:04;;;;;;;;;;;;;;;5.95;59.55;96252.59;5110397;28;19924;-57
2024/02/24 00:20:53;;;;;;;;;;;;;;;5.81;60.21;96262.75;5114096;27;19923;-60
2024/02/24 00:23:42;;;;;;;;;;;;;;;5.69;60.10;96253.41;5101401;27;19959;-58
2024/02/24 00:26:30;;;;;;;;;;;;;;;5.74;59.82;96272.09;5113349;27;19950;-58
2024/02/24 00:29:18;;;;;;;;;;;;;;;5.59;60.55;96261.03;5095554;27;19928;-58
2024/02/24 00:32:08;;;;;;;;;;;;;;;5.24;61.42;96253.78;5107508;27;19924;-59
2024/02/24 00:34:56;;;;;;;;;;;;;;;5.43;60.97;96261.53;5110001;27;19924;-60
2024/02/24 00:37:45;;;;;;;;;;;;;;;5.45;60.70;96253.91;5106304;27;19935;-59
2024/02/24 00:40:34;;;;;;;;;;;;;;;5.41;61.35;96249.47;5107674;27;19942;-61
2024/02/24 00:43:22;;;;;;;;;;;;;;;5.42;61.47;96257.22;5105686;27;19924;-60
2024/02/24 00:46:10;;;;;;;;;;;;;;;5.45;61.12;96255.81;5107043;27;19928;-60
2024/02/24 00:48:58;;;;;;;;;;;;;;;5.50;61.20;96252.97;5121674;27;20329;-60
2024/02/24 00:51:48;;;;;;;;;;;;;;;5.56;61.00;96254.38;5101983;27;19942;-60
2024/02/24 00:54:36;;;;;;;;;;;;;;;5.58;60.66;96262.94;5126283;27;20396;-60
2024/02/24 00:57:25;;;;;;;;;;;;;;;5.56;60.68;96253.59;5105221;27;20035;-64
2024/02/24 01:00:14;;;;;;;;;;;;;;;5.52;60.61;96258.81;5089304;28;19924;-63
2024/02/24 01:03:02;;;;;;;;;;;;;;;5.58;60.37;96254.84;5104302;27;20450;-59
2024/02/24 01:05:50;;;;;;;;;;;;;;;5.52;60.58;96250.75;5101777;28;20502;-59
2024/02/24 01:08:38;;;;;;;;;;;;;;;5.40;61.67;96264.06;5101688;27;19924;-59
2024/02/24 01:11:26;;;;;;;;;;;;;;;5.50;60.94;96256.44;5098989;28;19959;-60
2024/02/24 01:14:17;;;;;;;;;;;;;;;5.45;61.31;96261.22;5102966;28;19928;-60
2024/02/24 01:17:05;;;;;;;;;;;;;;;5.36;61.38;96257.72;5093503;27;19932;-57
2024/02/24 01:19:53;;;;;;;;;;;;;;;5.37;61.43;96262.00;5113629;27;20034;-61
2024/02/24 01:22:41;;;;;;;;;;;;;;;5.44;61.47;96260.41;5105474;27;19924;-60
2024/02/24 01:25:29;;;;;;;;;;;;;;;5.44;61.71;96263.13;5111306;27;19924;-62
2024/02/24 01:28:17;;;;;;;;;;;;;;;5.41;61.25;96257.56;5105043;27;19935;-59
2024/02/24 01:31:08;;;;;;;;;;;;;;;5.43;61.23;96260.72;5114502;27;19934;-61
2024/02/24 01:33:59;;;;;;;;;;;;;;;5.23;61.65;96271.03;5112528;27;19930;-59
2024/02/24 01:36:47;;;;;;;;;;;;;;;5.18;62.24;96262.31;5107691;27;19930;-59
2024/02/24 01:39:36;;;;;;;;;;;;;;;5.16;62.28;96265.31;5100150;27;20293;-62
2024/02/24 01:42:24;;;;;;;;;;;;;;;5.06;62.28;96264.84;5107004;27;19931;-60
2024/02/24 01:45:14;;;;;;;;;;;;;;;5.03;62.08;96271.66;5106939;27;19970;-59
2024/02/24 01:48:03;;;;;;;;;;;;;;;5.00;62.25;96267.69;5109379;27;19923;-59
2024/02/24 01:50:51;;;;;;;;;;;;;;;5.07;62.33;96271.81;5103539;27;19957;-58
2024/02/24 01:53:41;;;;;;;;;;;;;;;4.99;62.57;96276.88;5111027;27;20044;-61
2024/02/24 01:56:29;;;;;;;;;;;;;;;5.02;62.64;96272.78;5108921;27;19944;-58
2024/02/24 01:59:17;;;;;;;;;;;;;;;4.95;62.58;96272.41;5111666;27;20518;-59
2024/02/24 02:02:05;;;;;;;;;;;;;;;4.95;62.37;96275.13;5106812;27;20389;-58
2024/02/24 02:04:56;;;;;;;;;;;;;;;4.89;62.52;96282.53;5104984;27;19935;-58
2024/02/24 02:07:44;;;;;;;;;;;;;;;4.72;63.34;96285.22;5095553;28;20028;-59
2024/02/24 02:10:46;;;;;;;;;;;;;;;4.97;62.87;96283.69;5103663;27;20848;-59
2024/02/24 02:13:34;;;;;;;;;;;;;;;4.97;62.77;96289.06;5107387;27;19924;-57
2024/02/24 02:16:22;;;;;;;;;;;;;;;4.94;63.09;96284.31;5122087;27;19930;-61
2024/02/24 02:19:10;;;;;;;;;;;;;;;5.07;62.90;96286.06;5117673;27;20002;-59
2024/02/24 02:21:59;;;;;;;;;;;;;;;5.07;62.68;96286.06;5101653;27;19928;-58
2024/02/24 02:24:49;;;;;;;;;;;;;;;5.02;62.71;96283.53;5097274;27;19950;-58
2024/02/24 02:27:37;;;;;;;;;;;;;;;5.02;62.89;96288.13;5112133;27;19934;-59
2024/02/24 02:30:25;;;;;;;;;;;;;;;5.05;62.04;96287.47;5117728;27;19927;-59
2024/02/24 02:33:13;;;;;;;;;;;;;;;4.98;62.36;96285.25;5101002;27;19958;-57
2024/02/24 02:36:02;;;;;;;;;;;;;;;4.97;62.31;96286.38;5115152;27;20022;-58
2024/02/24 02:38:50;;;;;;;;;;;;;;;5.04;61.91;96289.38;5098092;28;19924;-57
2024/02/24 02:41:39;;;;;;;;;;;;;;;5.05;62.15;96293.66;5104564;27;19928;-59
2024/02/24 02:44:27;;;;;;;;;;;;;;;5.04;61.83;96293.97;5097778;27;19979;-58
2024/02/24 02:47:15;;;;;;;;;;;;;;;4.93;62.37;96291.59;5101992;27;20398;-58
2024/02/24 02:50:09;;;;;;;;;;;;;;;4.96;62.30;96293.66;5104578;28;20444;-58
2024/02/24 02:52:57;;;;;;;;;;;;;;;4.96;62.13;96290.97;5106762;28;20331;-59
2024/02/24 02:55:45;;;;;;;;;;;;;;;4.98;62.12;96299.50;5091081;28;19931;-58
2024/02/24 02:58:35;;;;;;;;;;;;;;;4.94;62.19;96305.81;5094901;28;20297;-59
2024/02/24 03:01:23;;;;;;;;;;;;;;;4.97;62.35;96306.00;5102251;28;19931;-58
2024/02/24 03:04:12;;;;;;;;;;;;;;;4.96;61.81;96309.03;5109295;28;20405;-58
2024/02/24 03:07:00;;;;;;;;;;;;;;;4.98;61.94;96298.72;5098384;27;19924;-58
2024/02/24 03:09:48;;;;;;;;;;;;;;;4.90;62.30;96303.00;5107626;28;19974;-59
2024/02/24 03:12:36;;;;;;;;;;;;;;;4.85;62.41;96299.66;5093203;28;19924;-59
2024/02/24 03:15:26;;;;;;;;;;;;;;;4.84;62.43;96308.81;5102061;27;19924;-58
2024/02/24 03:18:14;;;;;;;;;;;;;;;4.83;62.09;96299.94;5104789;27;19923;-59
2024/02/24 03:21:04;;;;;;;;;;;;;;;4.63;63.02;96300.53;5100420;28;19928;-67
2024/02/24 03:23:52;;;;;;;;;;;;;;;4.62;63.63;96313.19;5099603;28;20267;-60
2024/02/24 03:26:40;;;;;;;;;;;;;;;4.74;63.05;96318.00;5097778;28;20397;-58
2024/02/24 03:29:28;;;;;;;;;;;;;;;4.67;62.71;96318.41;5110393;27;19936;-58
2024/02/24 03:32:17;;;;;;;;;;;;;;;4.80;62.74;96316.72;5099399;28;19931;-58
2024/02/24 03:35:05;;;;;;;;;;;;;;;4.63;63.04;96314.75;5107761;27;19936;-58
2024/02/24 03:37:54;;;;;;;;;;;;;;;4.53;63.30;96320.44;5098455;27;19939;-57
2024/02/24 03:40:42;;;;;;;;;;;;;;;4.39;63.96;96315.16;5106762;27;19923;-58
2024/02/24 03:43:29;;;;;;;;;;;;;;;4.44;63.82;96319.63;5084708;28;19945;-59
2024/02/24 03:46:18;;;;;;;;;;;;;;;4.47;63.80;96329.72;5091436;28;20496;-59
2024/02/24 03:49:07;;;;;;;;;;;;;;;4.46;63.88;96322.78;5101247;27;19929;-59
2024/02/24 03:51:56;;;;;;;;;;;;;;;4.49;64.03;96327.53;5107260;27;20447;-59
2024/02/24 03:54:43;;;;;;;;;;;;;;;4.53;63.85;96331.22;5104294;27;19946;-59
2024/02/24 03:57:31;;;;;;;;;;;;;;;4.31;64.53;96331.25;5114933;27;20482;-59
2024/02/24 04:00:20;;;;;;;;;;;;;;;4.48;63.81;96331.34;5098435;28;20022;-59
2024/02/24 04:03:08;;;;;;;;;;;;;;;4.32;63.92;96322.09;5104460;28;19928;-59
2024/02/24 04:05:57;;;;;;;;;;;;;;;4.31;64.49;96331.25;5101386;28;19924;-59
2024/02/24 04:08:45;;;;;;;;;;;;;;;4.34;64.38;96325.25;5106053;28;19931;-59
2024/02/24 04:11:35;;;;;;;;;;;;;;;4.28;64.19;96337.25;5110387;28;19923;-59
2024/02/24 04:14:23;;;;;;;;;;;;;;;4.34;64.23;96336.03;5116680;28;20021;-59
2024/02/24 04:17:11;;;;;;;;;;;;;;;4.33;64.19;96334.44;5107899;28;19931;-59
2024/02/24 04:19:59;;;;;;;;;;;;;;;4.42;64.28;96343.31;5114740;28;19927;-60
2024/02/24 04:22:49;;;;;;;;;;;;;;;4.39;63.88;96342.06;5097198;28;19965;-58
2024/02/24 04:25:37;;;;;;;;;;;;;;;4.42;63.72;96344.13;5104417;28;19924;-57
2024/02/24 04:28:26;;;;;;;;;;;;;;;4.29;64.49;96353.06;5101925;28;19976;-57
2024/02/24 04:31:14;;;;;;;;;;;;;;;4.35;64.48;96349.13;5097075;28;19935;-58
2024/02/24 04:34:02;;;;;;;;;;;;;;;4.39;64.31;96368.16;5096280;28;20532;-58
2024/02/24 04:36:51;;;;;;;;;;;;;;;4.27;64.82;96363.34;5092752;28;19923;-58
2024/02/24 04:39:40;;;;;;;;;;;;;;;4.38;64.17;96364.66;5111530;28;19958;-58
2024/02/24 04:42:28;;;;;;;;;;;;;;;4.27;64.83;96365.25;5095980;28;19924;-60
2024/02/24 04:45:16;;;;;;;;;;;;;;;4.33;64.11;96366.69;5104813;28;19924;-60
2024/02/24 04:48:04;;;;;;;;;;;;;;;4.31;63.89;96358.13;5102470;28;19936;-59
2024/02/24 04:50:52;;;;;;;;;;;;;;;4.20;64.70;96361.06;5108934;28;19924;-59
2024/02/24 04:53:41;;;;;;;;;;;;;;;4.27;64.56;96367.94;5101157;28;19923;-57
2024/02/24 04:56:32;;;;;;;;;;;;;;;4.24;64.72;96371.22;5105464;28;19928;-57
2024/02/24 04:59:22;;;;;;;;;;;;;;;4.30;64.31;96375.38;5107613;28;20021;-59
2024/02/24 05:02:10;;;;;;;;;;;;;;;4.29;64.50;96379.16;5093188;28;19975;-59
2024/02/24 05:04:58;;;;;;;;;;;;;;;4.31;64.10;96379.63;5113480;27;19931;-60
2024/02/24 05:07:46;;;;;;;;;;;;;;;4.35;63.86;96386.00;5100972;27;20006;-58
2024/02/24 05:10:34;;;;;;;;;;;;;;;4.49;63.57;96386.72;5114160;27;20010;-59
2024/02/24 05:13:24;;;;;;;;;;;;;;;4.40;64.23;96385.88;5106819;27;19972;-60
2024/02/24 05:16:13;;;;;;;;;;;;;;;4.42;63.41;96394.41;5103197;28;19975;-59
2024/02/24 05:19:01;;;;;;;;;;;;;;;4.42;63.98;96392.53;5117062;27;19944;-59
2024/02/24 05:21:50;;;;;;;;;;;;;;;4.55;63.35;96395.44;5114584;27;20449;-61
2024/02/24 05:24:37;;;;;;;;;;;;;;;4.65;63.23;96392.47;5104642;27;19931;-59
2024/02/24 05:27:26;;;;;;;;;;;;;;;4.73;62.61;96395.19;5109785;27;19927;-59
2024/02/24 05:30:15;;;;;;;;;;;;;;;4.81;62.47;96396.34;5107621;28;19924;-59
2024/02/24 05:33:04;;;;;;;;;;;;;;;4.87;62.64;96391.63;5101026;27;19987;-59
2024/02/24 05:35:52;;;;;;;;;;;;;;;4.80;62.37;96396.66;5100920;28;20446;-59
2024/02/24 05:38:40;;;;;;;;;;;;;;;4.78;62.32;96412.31;5113518;27;19931;-59
2024/02/24 05:41:28;;;;;;;;;;;;;;;4.89;61.75;96405.53;5112261;27;19923;-59
2024/02/24 05:44:17;;;;;;;;;;;;;;;4.86;62.17;96422.31;5102547;27;19928;-59
2024/02/24 05:47:07;;;;;;;;;;;;;;;4.81;62.13;96435.91;5109137;27;19924;-62
2024/02/24 05:49:55;;;;;;;;;;;;;;;4.80;62.01;96434.34;5103080;28;20081;-59
2024/02/24 05:52:43;;;;;;;;;;;;;;;4.81;62.12;96436.69;5107671;27;20006;-59
2024/02/24 05:55:31;;;;;;;;;;;;;;;4.81;62.11;96431.31;5102764;27;20008;-59
2024/02/24 05:58:20;;;;;;;;;;;;;;;4.80;62.13;96435.13;5108682;27;20124;-59
2024/02/24 06:01:08;;;;;;;;;;;;;;;4.83;62.30;96439.06;5108560;27;20048;-59
2024/02/24 06:03:57;;;;;;;;;;;;;;;4.79;62.38;96440.78;5118852;27;20404;-60
2024/02/24 06:06:48;;;;;;;;;;;;;;;4.76;62.76;96436.03;5110923;27;19931;-60
2024/02/24 06:09:36;;;;;;;;;;;;;;;4.57;63.00;96441.63;5109271;27;20022;-60
2024/02/24 06:12:24;;;;;;;;;;;;;;;4.50;63.40;96420.56;5110756;27;20376;-60
2024/02/24 06:15:13;;;;;;;;;;;;;;;4.37;63.77;96422.25;5107233;28;19924;-61
2024/02/24 06:18:01;;;;;;;;;;;;;;;4.40;64.12;96423.50;5103609;27;19931;-59
2024/02/24 06:20:50;;;;;;;;;;;;;;;4.55;63.46;96427.72;5109716;27;19984;-59
2024/02/24 06:23:38;;;;;;;;;;;;;;;4.53;63.88;96436.09;5109396;27;19931;-59
2024/02/24 06:26:26;;;;;;;;;;;;;;;4.46;63.81;96430.34;5111149;27;20304;-60
2024/02/24 06:29:15;;;;;;;;;;;;;;;4.65;63.18;96449.75;5112036;27;20363;-60
2024/02/24 06:32:04;;;;;;;;;;;;;;;4.75;63.19;96456.78;5107384;27;20004;-61
2024/02/24 06:34:52;;;;;;;;;;;;;;;4.98;62.26;96454.81;5098335;27;19930;-60
2024/02/24 06:37:42;;;;;;;;;;;;;;;4.88;63.44;96469.31;5107058;27;20405;-60
2024/02/24 06:40:30;;;;;;;;;;;;;;;4.96;62.18;96473.19;5114053;27;19971;-59
2024/02/24 06:43:27;;;;;;;;;;;;;;;5.04;62.03;96471.63;5107768;27;20293;-59
2024/02/24 06:46:15;;;;;;;;;;;;;;;4.98;62.18;96479.81;5106122;28;20020;-59
2024/02/24 06:49:04;;;;;;;;;;;;;;;5.28;61.36;96482.81;5106567;27;19924;-61
2024/02/24 06:51:52;;;;;;;;;;;;;;;5.24;61.98;96489.91;5099330;27;19924;-62
2024/02/24 06:54:42;;;;;;;;;;;;;;;5.26;61.87;96499.25;5099553;27;20025;-60
2024/02/24 06:57:30;;;;;;;;;;;;;;;5.29;61.92;96515.91;5106110;27;19924;-61
2024/02/24 07:00:18;;;;;;;;;;;;;;;5.36;61.32;96518.94;5109552;27;19981;-61
2024/02/24 07:03:06;;;;;;;;;;;;;;;5.33;62.07;96528.44;5101329;28;19976;-60
2024/02/24 07:05:53;;;;;;;;;;;;;;;5.48;61.62;96529.91;5111752;27;20385;-59
2024/02/24 07:08:42;;;;;;;;;;;;;;;5.51;61.14;96540.06;5105779;27;19935;-60
2024/02/24 07:11:31;;;;;;;;;;;;;;;5.51;61.73;96551.63;5113780;27;20547;-61
2024/02/24 07:14:20;;;;;;;;;;;;;;;5.51;61.66;96551.63;5099882;27;19932;-60
2024/02/24 07:17:08;;;;;;;;;;;;;;;5.63;60.99;96553.72;5101789;28;19974;-59
2024/02/24 07:19:57;;;;;;;;;;;;;;;5.68;61.07;96561.69;5106281;27;20365;-59
2024/02/24 07:22:48;;;;;;;;;;;;;;;5.67;60.84;96560.09;5116560;27;20011;-60
2024/02/24 07:25:38;;;;;;;;;;;;;;;5.67;60.92;96570.06;5110594;27;19931;-59
2024/02/24 07:28:28;;;;;;;;;;;;;;;5.74;60.39;96576.59;5094896;27;20052;-61
2024/02/24 07:31:16;;;;;;;;;;;;;;;5.81;60.92;96580.75;5104974;28;19934;-60
2024/02/24 07:34:05;;;;;;;;;;;;;;;5.75;60.66;96588.97;5095580;27;20017;-59
2024/02/24 07:36:54;;;;;;;;;;;;;;;5.91;60.10;96593.91;5090991;28;19932;-60
2024/02/24 07:39:43;;;;;;;;;;;;;;;5.83;60.30;96600.09;5099964;28;19958;-60
2024/02/24 07:42:31;;;;;;;;;;;;;;;6.01;60.30;96590.97;5096912;28;19928;-60
2024/02/24 07:45:21;;;;;;;;;;;;;;;5.92;59.92;96599.03;5107164;28;19934;-60
2024/02/24 07:48:10;;;;;;;;;;;;;;;6.06;60.17;96603.50;5100821;28;19939;-57
2024/02/24 07:50:58;;;;;;;;;;;;;;;6.03;59.78;96588.75;5113358;27;19923;-60
2024/02/24 07:53:46;;;;;;;;;;;;;;;6.12;59.78;96586.84;5099948;27;20397;-60
2024/02/24 07:56:34;;;;;;;;;;;;;;;6.09;59.86;96597.50;5107403;28;19931;-60
2024/02/24 07:59:22;;;;;;;;;;;;;;;6.18;60.30;96601.81;5102373;28;19928;-59
2024/02/24 08:02:12;;;;;;;;;;;;;;;6.02;59.70;96614.16;5107622;28;19972;-60
2024/02/24 08:05:00;;;;;;;;;;;;;;;6.18;59.80;96612.59;5111841;28;19955;-60
2024/02/24 08:07:48;;;;;;;;;;;;;;;6.18;59.84;96607.19;5088988;28;19924;-59
2024/02/24 08:10:36;;;;;;;;;;;;;;;6.24;59.23;96608.63;5111752;28;19931;-60
2024/02/24 08:13:24;;;;;;;;;;;;;;;6.38;59.54;96610.38;5096581;28;19928;-60
2024/02/24 08:16:12;;;;;;;;;;;;;;;6.40;59.41;96613.56;5097527;28;19928;-60
2024/02/24 08:19:02;;;;;;;;;;;;;;;6.52;59.25;96611.84;5103624;28;20489;-67
2024/02/24 08:21:50;;;;;;;;;;;;;;;6.64;59.13;96615.81;5101723;28;19924;-61
2024/02/24 08:24:39;;;;;;;;;;;;;;;6.62;58.41;96621.53;5111871;28;19927;-57
2024/02/24 08:27:27;;;;;;;;;;;;;;;6.79;58.34;96621.53;5108291;28;19924;-59
2024/02/24 08:30:18;;;;;;;;;;;;;;;6.74;58.35;96629.78;5112325;28;20387;-59
2024/02/24 08:33:07;;;;;;;;;;;;;;;6.80;57.60;96628.50;5099670;28;20539;-60
2024/02/24 08:35:57;;;;;;;;;;;;;;;6.68;56.91;96635.66;5110099;28;19928;-60
2024/02/24 08:38:45;;;;;;;;;;;;;;;7.06;57.32;96641.19;5106309;28;20011;-60
2024/02/24 08:41:35;;;;;;;;;;;;;;;7.11;57.43;96657.25;5092068;28;20401;-59
2024/02/24 08:44:24;;;;;;;;;;;;;;;7.12;56.95;96655.34;5101467;27;19931;-59
2024/02/24 08:47:12;;;;;;;;;;;;;;;7.19;57.59;96669.97;5108908;27;19923;-59
2024/02/24 08:50:00;;;;;;;;;;;;;;;7.20;55.99;96671.53;5102958;28;19967;-60
2024/02/24 08:52:49;;;;;;;;;;;;;;;7.23;56.26;96684.41;5105122;28;19932;-59
2024/02/24 08:55:38;;;;;;;;;;;;;;;7.13;55.95;96698.22;5084932;27;20365;-59
2024/02/24 08:58:26;;;;;;;;;;;;;;;7.16;56.16;96689.50;5109833;27;19927;-59
2024/02/24 09:01:14;;;;;;;;;;;;;;;7.28;55.97;96692.34;5100299;27;20292;-59
2024/02/24 09:04:03;;;;;;;;;;;;;;;7.42;56.43;96696.78;5103955;27;20049;-60
2024/02/24 09:06:51;;;;;;;;;;;;;;;7.47;56.48;96699.31;5098322;27;20335;-59
2024/02/24 09:09:40;;;;;;;;;;;;;;;7.33;55.92;96710.28;5102835;27;19924;-60
2024/02/24 09:12:29;;;;;;;;;;;;;;;7.21;55.92;96710.94;5118068;27;19924;-59
2024/02/24 09:15:18;;;;;;;;;;;;;;;7.26;55.67;96726.19;5116171;27;19923;-59
2024/02/24 09:18:07;;;;;;;;;;;;;;;7.22;56.19;96731.44;5100571;27;20405;-60
2024/02/24 09:20:55;;;;;;;;;;;;;;;7.22;56.66;96736.84;5115628;27;19927;-59
2024/02/24 09:23:43;;;;;;;;;;;;;;;7.27;56.14;96744.00;5114599;27;19931;-59
2024/02/24 09:26:32;;;;;;;;;;;;;;;6.92;56.39;96760.16;5108042;27;20010;-59
2024/02/24 09:29:22;;;;;;;;;;;;;;;7.14;56.43;96767.34;5105632;27;19924;-63
2024/02/24 09:32:10;;;;;;;;;;;;;;;7.11;57.16;96778.78;5109073;27;19924;-59
2024/02/24 09:34:58;;;;;;;;;;;;;;;7.23;58.05;96775.44;5104544;27;19932;-60
2024/02/24 09:37:47;;;;;;;;;;;;;;;7.12;58.12;96783.06;5107597;28;20296;-60
2024/02/24 09:40:34;;;;;;;;;;;;;;;7.21;59.04;96783.09;5104059;27;19924;-60
2024/02/24 09:43:24;;;;;;;;;;;;;;;7.31;59.13;96786.28;5105798;27;19942;-60
2024/02/24 09:46:12;;;;;;;;;;;;;;;7.28;59.04;96778.78;5113978;27;19950;-61
2024/02/24 09:49:02;;;;;;;;;;;;;;;7.25;59.63;96770.53;5105235;27;19928;-59
2024/02/24 09:51:51;;;;;;;;;;;;;;;7.24;59.72;96775.13;5112980;27;19928;-60
2024/02/24 09:54:39;;;;;;;;;;;;;;;7.40;60.29;96771.94;5099488;27;19923;-60
2024/02/24 09:57:29;;;;;;;;;;;;;;;7.49;60.75;96780.84;5097379;28;19928;-60
2024/02/24 10:00:19;;;;;;;;;;;;;;;7.55;60.80;96782.28;5114837;27;19930;-59
2024/02/24 10:03:07;;;;;;;;;;;;;;;7.59;61.00;96775.13;5109138;28;19924;-60
2024/02/24 10:05:56;;;;;;;;;;;;;;;7.69;60.72;96780.22;5103049;27;19935;-59
2024/02/24 10:08:44;;;;;;;;;;;;;;;7.91;60.07;96783.84;5100961;27;20425;-59
2024/02/24 10:11:32;;;;;;;;;;;;;;;7.96;60.31;96778.25;5100242;27;19978;-59
2024/02/24 10:14:20;;;;;;;;;;;;;;;8.07;59.48;96774.88;5099165;28;19924;-58
2024/02/24 10:17:09;;;;;;;;;;;;;;;8.12;59.94;96768.50;5098159;28;19951;-59
2024/02/24 10:19:57;;;;;;;;;;;;;;;8.20;60.62;96764.97;5100399;27;20285;-60
2024/02/24 10:22:45;;;;;;;;;;;;;;;8.42;59.21;96774.03;5100142;27;20425;-60
2024/02/24 10:25:33;;;;;;;;;;;;;;;8.57;59.05;96776.16;5103526;27;19924;-60
2024/02/24 10:28:21;;;;;;;;;;;;;;;8.54;57.84;96766.78;5102860;27;19935;-59
2024/02/24 10:31:11;;;;;;;;;;;;;;;8.64;56.92;96757.50;5112118;27;19935;-61
2024/02/24 10:34:00;;;;;;;;;;;;;;;8.79;56.72;96748.84;5104865;27;19930;-60
2024/02/24 10:36:48;;;;;;;;;;;;;;;8.81;55.21;96748.50;5098674;27;20308;-60
2024/02/24 10:39:36;;;;;;;;;;;;;;;8.75;53.65;96757.94;5109572;27;20061;-60
2024/02/24 10:42:26;;;;;;;;;;;;;;;8.83;53.92;96757.88;5098320;28;20022;-60
2024/02/24 10:45:14;;;;;;;;;;;;;;;8.85;54.57;96752.94;5107995;27;19923;-61
2024/02/24 10:48:02;;;;;;;;;;;;;;;8.93;54.52;96743.94;5099396;28;19924;-60
2024/02/24 10:50:51;;;;;;;;;;;;;;;8.95;52.90;96751.75;5100919;27;19938;-62
2024/02/24 10:53:40;;;;;;;;;;;;;;;9.01;53.32;96760.50;5103559;28;19932;-60
2024/02/24 10:56:28;;;;;;;;;;;;;;;9.04;53.65;96767.94;5108935;27;19928;-60
2024/02/24 10:59:18;;;;;;;;;;;;;;;9.12;53.14;96775.22;5108833;27;20032;-60
2024/02/24 11:02:07;;;;;;;;;;;;;;;9.15;52.00;96777.25;5093747;28;19946;-59
2024/02/24 11:04:56;;;;;;;;;;;;;;;9.11;51.90;96773.66;5110154;27;19966;-60
2024/02/24 11:07:45;;;;;;;;;;;;;;;9.06;51.56;96763.00;5109134;27;19924;-60
2024/02/24 11:10:33;;;;;;;;;;;;;;;9.15;52.06;96777.25;5108746;27;19946;-60
2024/02/24 11:13:22;;;;;;;;;;;;;;;9.27;51.43;96773.81;5104932;27;19946;-59
2024/02/24 11:16:10;;;;;;;;;;;;;;;9.38;51.00;96775.03;5088721;27;20011;-60
2024/02/24 11:18:58;;;;;;;;;;;;;;;9.32;50.38;96763.63;5107019;27;19972;-60
2024/02/24 11:21:59;;;;;;;;;;;;;;;9.42;49.73;96765.91;5097746;27;20296;-60
2024/02/24 11:24:58;;;;;;;;;;;;;;;9.56;48.83;96775.69;5096758;27;20073;-60
2024/02/24 11:27:46;;;;;;;;;;;;;;;9.48;49.07;96765.69;5103406;27;19932;-60
2024/02/24 11:30:43;;;;;;;;;;;;;;;9.56;48.86;96770.25;5096607;27;20151;-60
2024/02/24 11:33:35;;;;;;;;;;;;;;;9.45;48.36;96778.00;5097748;27;19967;-60
2024/02/24 11:36:23;;;;;;;;;;;;;;;9.39;48.91;96776.63;5098059;27;19930;-60
2024/02/24 11:39:12;;;;;;;;;;;;;;;9.34;49.25;96776.81;5098708;27;20317;-60
2024/02/24 11:42:01;;;;;;;;;;;;;;;9.39;48.67;96779.34;5109817;27;19966;-60
2024/02/24 11:44:50;;;;;;;;;;;;;;;9.52;48.39;96770.13;5106690;27;19932;-59
2024/02/24 11:47:39;;;;;;;;;;;;;;;9.55;47.29;96779.53;5096695;27;19924;-59
2024/02/24 11:50:29;;;;;;;;;;;;;;;9.58;48.09;96776.94;5101479;27;19946;-60
2024/02/24 11:53:17;;;;;;;;;;;;;;;9.72;48.14;96773.94;5110341;28;19998;-60
2024/02/24 11:56:06;;;;;;;;;;;;;;;9.81;47.06;96777.38;5106407;28;19977;-60
2024/02/24 11:58:56;;;;;;;;;;;;;;;9.83;45.91;96771.63;5105745;28;20030;-60
2024/02/24 12:01:48;;;;;;;;;;;;;;;9.77;46.14;96776.47;5112103;28;20507;-60
2024/02/24 12:04:36;;;;;;;;;;;;;;;9.93;46.21;96768.50;5100490;28;19930;-60
2024/02/24 12:07:24;;;;;;;;;;;;;;;10.08;45.68;96775.19;5103413;28;20015;-60
2024/02/24 12:10:12;;;;;;;;;;;;;;;10.22;46.72;96778.38;5108634;28;19930;-60
2024/02/24 12:13:00;;;;;;;;;;;;;;;10.24;45.45;96773.47;5113966;27;20014;-60
2024/02/24 12:15:50;;;;;;;;;;;;;;;10.25;45.14;96777.75;5105947;28;19934;-60
2024/02/24 12:18:40;;;;;;;;;;;;;;;10.35;45.34;96771.91;5106259;28;19968;-60
2024/02/24 12:21:28;;;;;;;;;;;;;;;10.43;44.84;96770.97;5103283;27;19930;-60
2024/02/24 12:24:25;;;;;;;;;;;;;;;10.34;44.67;96764.88;5109212;28;20000;-61
2024/02/24 12:27:13;;;;;;;;;;;;;;;10.33;44.38;96770.63;5098415;28;20788;-60
2024/02/24 12:30:01;;;;;;;;;;;;;;;10.29;43.65;96781.38;5100753;28;19939;-60
2024/02/24 12:32:51;;;;;;;;;;;;;;;10.30;42.36;96774.03;5100127;28;19927;-60
2024/02/24 12:35:39;;;;;;;;;;;;;;;10.28;43.66;96763.53;5109622;28;20395;-60
2024/02/24 12:38:27;;;;;;;;;;;;;;;10.27;43.26;96771.97;5105830;28;19927;-60
2024/02/24 12:41:17;;;;;;;;;;;;;;;10.22;42.97;96775.66;5072587;22;19932;-82
2024/02/24 12:44:08;;;;;;;;;;;;;;;10.22;43.05;96781.88;5047038;28;19925;-82
2024/02/24 12:46:57;;;;;;;;;;;;;;;10.31;42.38;96773.69;5046837;28;19995;-82
2024/02/24 12:49:47;;;;;;;;;;;;;;;10.27;43.34;96772.78;5050894;28;19924;-82
2024/02/24 12:52:35;;;;;;;;;;;;;;;10.35;42.43;96771.91;5047553;28;20382;-82
2024/02/24 12:55:23;;;;;;;;;;;;;;;10.16;42.54;96775.09;5056377;28;20014;-83
2024/02/24 12:58:11;;;;;;;;;;;;;;;10.09;42.92;96780.28;5062377;28;19935;-82
2024/02/24 13:01:00;;;;;;;;;;;;;;;10.15;42.96;96789.00;5050305;28;20307;-84
2024/02/24 13:03:48;;;;;;;;;;;;;;;10.22;42.79;96781.88;5055243;28;19925;-81
2024/02/24 13:06:39;;;;;;;;;;;;;;;10.35;44.38;96793.63;5052319;28;20492;-80
2024/02/24 13:09:27;;;;;;;;;;;;;;;10.47;43.08;96792.84;5050397;28;19932;-82
2024/02/24 13:12:16;;;;;;;;;;;;;;;10.53;41.39;96774.41;5046871;28;20008;-77
2024/02/24 13:15:07;;;;;;;;;;;;;;;10.47;41.31;96774.63;5047195;28;20014;-84
2024/02/24 13:17:55;;;;;;;;;;;;;;;10.57;41.85;96786.16;5048294;28;19980;-84
2024/02/24 13:20:44;;;;;;;;;;;;;;;10.61;41.12;96787.09;5044179;28;19972;-84
2024/02/24 13:23:36;;;;;;;;;;;;;;;10.51;41.06;96792.97;5044746;28;19932;-85
2024/02/24 13:26:04;;;;;;;;;;;;;;;10.49;41.60;96796.81;5043962;28;19925;-85
2024/02/24 13:28:31;;;;;;;;;;;;;;;10.46;41.56;96791.25;5052345;28;19932;-81
2024/02/24 13:30:59;;;;;;;;;;;;;;;10.41;41.66;96788.75;5051542;28;19925;-95
2024/02/24 13:33:26;;;;;;;;;;;;;;;10.28;42.38;96787.13;5050009;28;19951;-85
2024/02/24 13:35:54;;;;;;;;;;;;;;;10.12;42.92;96795.91;5045210;28;19925;-80
2024/02/24 13:38:21;;;;;;;;;;;;;;;10.24;42.92;96800.59;5059176;28;20012;-76
2024/02/24 13:40:50;;;;;;;;;;;;;;;10.23;42.81;96797.09;5048306;28;20364;-77
2024/02/24 13:43:19;;;;;;;;;;;;;;;10.32;42.92;96799.69;5066649;28;19924;-80
2024/02/24 13:45:46;;;;;;;;;;;;;;;10.26;42.64;96798.34;5049343;28;19924;-79
2024/02/24 13:48:14;;;;;;;;;;;;;;;10.24;42.78;96800.59;5048441;28;19931;-78
2024/02/24 13:50:42;;;;;;;;;;;;;;;10.23;42.36;96793.56;5050614;28;19928;-78
2024/02/24 13:53:12;;;;;;;;;;;;;;;10.38;42.04;96801.06;5052144;28;19928;-78
2024/02/24 13:55:40;;;;;;;;;;;;;;;10.48;41.92;96808.78;5053430;28;19952;-78
2024/02/24 13:58:09;;;;;;;;;;;;;;;10.58;41.85;96804.03;5040931;28;19925;-78
2024/02/24 14:00:36;;;;;;;;;;;;;;;10.60;40.28;96812.63;5049814;28;19928;-78
2024/02/24 14:03:05;;;;;;;;;;;;;;;10.58;40.65;96812.97;5045098;28;19925;-78
2024/02/24 14:05:33;;;;;;;;;;;;;;;10.51;41.03;96820.13;5047127;28;19955;-78
2024/02/24 14:08:03;;;;;;;;;;;;;;;10.70;39.84;96810.28;5050223;28;19931;-78
2024/02/24 14:10:33;;;;;;;;;;;;;;;10.65;39.03;96810.53;5046029;28;19945;-79
2024/02/24 14:13:01;;;;;;;;;;;;;;;10.58;40.37;96814.91;5048221;28;19964;-78
2024/02/24 14:15:30;;;;;;;;;;;;;;;10.54;40.08;96816.72;5049794;28;19925;-78
2024/02/24 14:17:58;;;;;;;;;;;;;;;10.48;40.31;96814.22;5055789;28;19982;-78
2024/02/24 14:20:31;;;;;;;;;;;;;;;10.53;40.84;96820.56;5050059;28;19935;-79
2024/02/24 14:22:59;;;;;;;;;;;;;;;10.33;39.79;96814.06;5031738;28;19961;-79
2024/02/24 14:25:27;;;;;;;;;;;;;;;10.55;39.71;96812.88;5043704;28;19940;-79
2024/02/24 14:27:55;;;;;;;;;;;;;;;10.61;40.25;96819.69;5045529;28;19929;-79
2024/02/24 14:30:23;;;;;;;;;;;;;;;10.59;40.74;96819.22;5052051;28;19929;-78
2024/02/24 14:32:52;;;;;;;;;;;;;;;10.60;40.66;96815.34;5048382;28;19974;-76
2024/02/24 14:35:20;;;;;;;;;;;;;;;10.51;40.64;96817.41;5046505;28;20389;-77
2024/02/24 14:37:48;;;;;;;;;;;;;;;10.59;40.05;96814.56;5044459;28;19925;-76